sensor_id;sensor_type;location;lat;lon;timestamp;temperature;humidity
16384;DHT22;8301;51.440;6.610;2024-03-02T03:17:31;11.20;1.00
16384;DHT22;8301;51.440;6.610;2024-03-02T03:19:58;8.40;1.00
16384;DHT22;8301;51.440;6.610;2024-03-02T03:22:27;8.40;1.00
16384;DHT22;8301;51.440;6.610;2024-03-02T03:24:54;8.40;1.00
16384;DHT22;8301;51.440;6.610;2024-03-02T03:27:22;8.40;1.00
16384;DHT22;8301;51.440;6.610;2024-03-02T03:29:49;8.40;1.00
16384;DHT22;8301;51.440;6.610;2024-03-02T03:32:17;8.30;1.00
16384;DHT22;8301;51.440;6.610;2024-03-02T03:34:44;8.30;1.00
16384;DHT22;8301;51.440;6.610;2024-03-02T03:37:12;8.10;1.00
16384;DHT22;8301;51.440;6.610;2024-03-02T03:39:39;8.20;1.00
16384;DHT22;8301;51.440;6.610;2024-03-02T03:42:07;8.10;1.00
16384;DHT22;8301;51.440;6.610;2024-03-02T03:44:34;8.10;1.00
16384;DHT22;8301;51.440;6.610;2024-03-02T03:47:02;8.10;39.70
16384;DHT22;8301;51.440;6.610;2024-03-02T03:49:29;8.10;71.90
16384;DHT22;8301;51.440;6.610;2024-03-02T03:51:57;8.10;99.90
16384;DHT22;8301;51.440;6.610;2024-03-02T03:54:25;8.10;99.90
16384;DHT22;8301;51.440;6.610;2024-03-02T03:56:54;8.00;99.90
16384;DHT22;8301;51.440;6.610;2024-03-02T03:59:22;8.00;99.90
16384;DHT22;8301;51.440;6.610;2024-03-02T04:01:50;8.00;99.90
16384;DHT22;8301;51.440;6.610;2024-03-02T04:04:17;8.00;99.90
16384;DHT22;8301;51.440;6.610;2024-03-02T04:06:45;7.90;99.90
16384;DHT22;8301;51.440;6.610;2024-03-02T04:09:12;7.90;99.90
16384;DHT22;8301;51.440;6.610;2024-03-02T04:11:41;7.90;99.90
16384;DHT22;8301;51.440;6.610;2024-03-02T04:14:08;8.00;99.90
16384;DHT22;8301;51.440;6.610;2024-03-02T04:16:36;7.90;99.90
16384;DHT22;8301;51.440;6.610;2024-03-02T04:19:03;7.90;99.90
16384;DHT22;8301;51.440;6.610;2024-03-02T04:21:31;7.80;99.90
16384;DHT22;8301;51.440;6.610;2024-03-02T04:23:59;7.70;99.90
16384;DHT22;8301;51.440;6.610;2024-03-02T04:26:26;7.70;99.90
16384;DHT22;8301;51.440;6.610;2024-03-02T04:28:54;7.70;99.90
16384;DHT22;8301;51.440;6.610;2024-03-02T04:31:21;7.60;99.90
16384;DHT22;8301;51.440;6.610;2024-03-02T04:33:49;7.60;99.90
16384;DHT22;8301;51.440;6.610;2024-03-02T04:36:16;7.50;99.90
16384;DHT22;8301;51.440;6.610;2024-03-02T04:38:44;7.50;99.90
16384;DHT22;8301;51.440;6.610;2024-03-02T04:41:12;7.50;99.90
16384;DHT22;8301;51.440;6.610;2024-03-02T04:43:40;7.50;1.00
16384;DHT22;8301;51.440;6.610;2024-03-02T04:46:07;7.50;1.00
16384;DHT22;8301;51.440;6.610;2024-03-02T04:48:35;7.40;99.90
16384;DHT22;8301;51.440;6.610;2024-03-02T04:51:02;7.40;99.90
16384;DHT22;8301;51.440;6.610;2024-03-02T04:53:30;7.40;99.90
16384;DHT22;8301;51.440;6.610;2024-03-02T04:55:57;7.40;99.90
16384;DHT22;8301;51.440;6.610;2024-03-02T04:58:27;7.20;99.90
16384;DHT22;8301;51.440;6.610;2024-03-02T05:00:54;7.10;99.90
16384;DHT22;8301;51.440;6.610;2024-03-02T05:03:23;7.10;99.90
16384;DHT22;8301;51.440;6.610;2024-03-02T05:05:50;6.90;1.00
16384;DHT22;8301;51.440;6.610;2024-03-02T05:08:18;6.70;1.00
16384;DHT22;8301;51.440;6.610;2024-03-02T05:10:45;6.80;1.00
16384;DHT22;8301;51.440;6.610;2024-03-02T05:13:13;6.80;1.00
16384;DHT22;8301;51.440;6.610;2024-03-02T05:15:40;6.80;1.00
16384;DHT22;8301;51.440;6.610;2024-03-02T05:18:09;6.70;1.00
16384;DHT22;8301;51.440;6.610;2024-03-02T05:20:37;6.50;1.00
16384;DHT22;8301;51.440;6.610;2024-03-02T05:23:04;6.50;1.00
16384;DHT22;8301;51.440;6.610;2024-03-02T05:25:32;6.60;1.00
16384;DHT22;8301;51.440;6.610;2024-03-02T05:28:01;6.60;1.00
16384;DHT22;8301;51.440;6.610;2024-03-02T05:30:29;6.60;1.00
16384;DHT22;8301;51.440;6.610;2024-03-02T05:32:56;6.60;67.20
16384;DHT22;8301;51.440;6.610;2024-03-02T05:35:24;6.50;43.80
16384;DHT22;8301;51.440;6.610;2024-03-02T05:37:52;6.40;99.90
16384;DHT22;8301;51.440;6.610;2024-03-02T05:40:19;6.40;99.90
16384;DHT22;8301;51.440;6.610;2024-03-02T05:42:48;6.40;99.90
16384;DHT22;8301;51.440;6.610;2024-03-02T05:45:15;6.30;99.90
16384;DHT22;8301;51.440;6.610;2024-03-02T05:47:43;6.30;99.90
16384;DHT22;8301;51.440;6.610;2024-03-02T05:50:10;6.40;99.90
16384;DHT22;8301;51.440;6.610;2024-03-02T05:52:38;6.40;99.90
16384;DHT22;8301;51.440;6.610;2024-03-02T05:55:05;6.40;99.90
16384;DHT22;8301;51.440;6.610;2024-03-02T05:57:33;6.30;99.90
16384;DHT22;8301;51.440;6.610;2024-03-02T06:00:09;6.30;99.90
16384;DHT22;8301;51.440;6.610;2024-03-02T06:02:40;6.30;99.90
16384;DHT22;8301;51.440;6.610;2024-03-02T06:05:07;6.30;99.90
16384;DHT22;8301;51.440;6.610;2024-03-02T06:07:35;6.30;99.90
16384;DHT22;8301;51.440;6.610;2024-03-02T06:10:03;6.30;99.90
16384;DHT22;8301;51.440;6.610;2024-03-02T06:12:31;6.30;99.90
16384;DHT22;8301;51.440;6.610;2024-03-02T06:14:59;6.40;74.90
16384;DHT22;8301;51.440;6.610;2024-03-02T06:17:26;6.40;59.20
16384;DHT22;8301;51.440;6.610;2024-03-02T06:19:54;6.40;22.50
16384;DHT22;8301;51.440;6.610;2024-03-02T06:22:21;6.50;6.70
16384;DHT22;8301;51.440;6.610;2024-03-02T06:24:51;6.60;1.00
16384;DHT22;8301;51.440;6.610;2024-03-02T06:27:18;6.70;1.00
16384;DHT22;8301;51.440;6.610;2024-03-02T06:29:46;6.80;1.00
16384;DHT22;8301;51.440;6.610;2024-03-02T06:32:14;6.90;1.00
16384;DHT22;8301;51.440;6.610;2024-03-02T06:34:42;7.00;1.00
16384;DHT22;8301;51.440;6.610;2024-03-02T06:37:10;7.00;1.00
16384;DHT22;8301;51.440;6.610;2024-03-02T06:39:37;7.20;1.00
16384;DHT22;8301;51.440;6.610;2024-03-02T06:42:05;7.20;99.90
16384;DHT22;8301;51.440;6.610;2024-03-02T06:44:32;7.30;99.90
16384;DHT22;8301;51.440;6.610;2024-03-02T06:47:00;7.40;99.90
16384;DHT22;8301;51.440;6.610;2024-03-02T06:49:27;7.50;99.90
16384;DHT22;8301;51.440;6.610;2024-03-02T06:51:55;7.60;99.90
16384;DHT22;8301;51.440;6.610;2024-03-02T06:54:22;7.70;99.90
16384;DHT22;8301;51.440;6.610;2024-03-02T06:56:50;7.90;99.90
16384;DHT22;8301;51.440;6.610;2024-03-02T06:59:17;8.00;99.90
16384;DHT22;8301;51.440;6.610;2024-03-02T07:01:45;8.00;99.90
16384;DHT22;8301;51.440;6.610;2024-03-02T07:04:12;8.20;99.90
16384;DHT22;8301;51.440;6.610;2024-03-02T07:06:40;8.20;99.90
16384;DHT22;8301;51.440;6.610;2024-03-02T07:09:07;8.20;95.00
16384;DHT22;8301;51.440;6.610;2024-03-02T07:11:37;8.20;81.60
16384;DHT22;8301;51.440;6.610;2024-03-02T07:14:04;8.20;62.00
16384;DHT22;8301;51.440;6.610;2024-03-02T07:16:32;8.30;71.80
16384;DHT22;8301;51.440;6.610;2024-03-02T07:19:01;8.40;36.60
16384;DHT22;8301;51.440;6.610;2024-03-02T07:21:28;8.50;21.30
16384;DHT22;8301;51.440;6.610;2024-03-02T07:23:56;8.50;14.30
16384;DHT22;8301;51.440;6.610;2024-03-02T07:26:23;8.50;5.60
16384;DHT22;8301;51.440;6.610;2024-03-02T07:28:51;8.60;1.00
16384;DHT22;8301;51.440;6.610;2024-03-02T07:31:18;8.60;1.00
16384;DHT22;8301;51.440;6.610;2024-03-02T07:33:46;8.90;1.00
16384;DHT22;8301;51.440;6.610;2024-03-02T07:36:14;8.90;1.00
16384;DHT22;8301;51.440;6.610;2024-03-02T07:38:43;8.90;1.00
16384;DHT22;8301;51.440;6.610;2024-03-02T07:41:11;8.80;27.80
16384;DHT22;8301;51.440;6.610;2024-03-02T07:43:38;8.60;70.40
16384;DHT22;8301;51.440;6.610;2024-03-02T07:46:06;8.50;97.10
16384;DHT22;8301;51.440;6.610;2024-03-02T07:48:34;8.40;99.90
16384;DHT22;8301;51.440;6.610;2024-03-02T07:51:03;8.40;99.90
16384;DHT22;8301;51.440;6.610;2024-03-02T07:53:31;8.50;99.90
16384;DHT22;8301;51.440;6.610;2024-03-02T07:55:58;8.50;99.90
16384;DHT22;8301;51.440;6.610;2024-03-02T07:58:27;8.50;99.90
16384;DHT22;8301;51.440;6.610;2024-03-02T08:00:55;8.50;99.90
16384;DHT22;8301;51.440;6.610;2024-03-02T08:03:23;8.80;91.00
16384;DHT22;8301;51.440;6.610;2024-03-02T08:05:50;9.20;1.00
16384;DHT22;8301;51.440;6.610;2024-03-02T08:08:18;9.30;1.00
16384;DHT22;8301;51.440;6.610;2024-03-02T08:10:45;9.30;1.00
16384;DHT22;8301;51.440;6.610;2024-03-02T08:13:13;9.40;1.00
16384;DHT22;8301;51.440;6.610;2024-03-02T08:15:40;9.40;1.00
16384;DHT22;8301;51.440;6.610;2024-03-02T08:18:08;9.20;1.00
16384;DHT22;8301;51.440;6.610;2024-03-02T08:20:35;9.20;1.00
16384;DHT22;8301;51.440;6.610;2024-03-02T08:23:03;9.20;1.00
16384;DHT22;8301;51.440;6.610;2024-03-02T08:25:30;9.10;1.00
16384;DHT22;8301;51.440;6.610;2024-03-02T08:27:58;9.10;1.00
16384;DHT22;8301;51.440;6.610;2024-03-02T08:30:26;9.30;1.00
16384;DHT22;8301;51.440;6.610;2024-03-02T08:32:53;9.40;1.00
16384;DHT22;8301;51.440;6.610;2024-03-02T08:35:21;9.00;1.00
16384;DHT22;8301;51.440;6.610;2024-03-02T08:37:49;9.10;1.00
16384;DHT22;8301;51.440;6.610;2024-03-02T08:40:18;9.40;1.00
16384;DHT22;8301;51.440;6.610;2024-03-02T08:42:45;9.70;1.00
16384;DHT22;8301;51.440;6.610;2024-03-02T08:47:43;10.00;1.00
16384;DHT22;8301;51.440;6.610;2024-03-02T08:50:10;11.20;1.00
16384;DHT22;8301;51.440;6.610;2024-03-02T08:52:38;11.70;1.00
16384;DHT22;8301;51.440;6.610;2024-03-02T08:55:06;12.10;1.00
16384;DHT22;8301;51.440;6.610;2024-03-02T08:57:34;12.30;1.00
16384;DHT22;8301;51.440;6.610;2024-03-02T09:00:01;12.90;1.00
16384;DHT22;8301;51.440;6.610;2024-03-02T09:02:29;13.30;1.00
16384;DHT22;8301;51.440;6.610;2024-03-02T09:04:57;13.60;1.00
16384;DHT22;8301;51.440;6.610;2024-03-02T09:07:24;13.10;1.00
16384;DHT22;8301;51.440;6.610;2024-03-02T09:09:52;12.90;1.00
16384;DHT22;8301;51.440;6.610;2024-03-02T09:12:20;13.40;1.00
16384;DHT22;8301;51.440;6.610;2024-03-02T09:14:48;13.80;1.00
16384;DHT22;8301;51.440;6.610;2024-03-02T09:17:15;13.50;1.00
16384;DHT22;8301;51.440;6.610;2024-03-02T09:19:43;12.90;1.00
16384;DHT22;8301;51.440;6.610;2024-03-02T09:22:10;12.50;1.00
16384;DHT22;8301;51.440;6.610;2024-03-02T09:24:38;12.70;1.00
16384;DHT22;8301;51.440;6.610;2024-03-02T09:27:05;12.00;1.00
16384;DHT22;8301;51.440;6.610;2024-03-02T09:29:33;11.90;1.00
16384;DHT22;8301;51.440;6.610;2024-03-02T09:32:00;12.30;1.00
16384;DHT22;8301;51.440;6.610;2024-03-02T09:34:29;11.70;1.00
16384;DHT22;8301;51.440;6.610;2024-03-02T09:36:56;11.90;1.00
16384;DHT22;8301;51.440;6.610;2024-03-02T09:39:24;12.30;1.00
16384;DHT22;8301;51.440;6.610;2024-03-02T09:41:52;12.10;1.00
16384;DHT22;8301;51.440;6.610;2024-03-02T09:44:20;12.40;1.00
16384;DHT22;8301;51.440;6.610;2024-03-02T09:46:52;12.60;1.00
16384;DHT22;8301;51.440;6.610;2024-03-02T09:49:19;12.70;1.00
16384;DHT22;8301;51.440;6.610;2024-03-02T09:51:48;12.30;1.00
16384;DHT22;8301;51.440;6.610;2024-03-02T09:54:16;12.40;1.00
16384;DHT22;8301;51.440;6.610;2024-03-02T09:56:47;12.30;1.00
16384;DHT22;8301;51.440;6.610;2024-03-02T09:59:15;12.20;1.00
16384;DHT22;8301;51.440;6.610;2024-03-02T10:01:59;12.30;1.00
16384;DHT22;8301;51.440;6.610;2024-03-02T10:04:29;12.40;1.00
16384;DHT22;8301;51.440;6.610;2024-03-02T10:07:18;12.50;1.00
16384;DHT22;8301;51.440;6.610;2024-03-02T10:09:46;12.10;1.00
16384;DHT22;8301;51.440;6.610;2024-03-02T10:12:15;12.40;1.00
16384;DHT22;8301;51.440;6.610;2024-03-02T10:14:44;12.50;1.00
16384;DHT22;8301;51.440;6.610;2024-03-02T10:17:13;12.30;1.00
16384;DHT22;8301;51.440;6.610;2024-03-02T10:19:42;12.60;1.00
16384;DHT22;8301;51.440;6.610;2024-03-02T10:22:15;12.50;1.00
16384;DHT22;8301;51.440;6.610;2024-03-02T10:24:43;12.50;1.00
16384;DHT22;8301;51.440;6.610;2024-03-02T10:27:22;12.60;1.00
16384;DHT22;8301;51.440;6.610;2024-03-02T10:29:50;12.50;1.00
16384;DHT22;8301;51.440;6.610;2024-03-02T10:32:17;12.50;1.00
16384;DHT22;8301;51.440;6.610;2024-03-02T10:34:46;12.40;1.00
16384;DHT22;8301;51.440;6.610;2024-03-02T10:37:14;12.20;1.00
16384;DHT22;8301;51.440;6.610;2024-03-02T10:39:43;12.40;1.00
16384;DHT22;8301;51.440;6.610;2024-03-02T10:42:12;12.40;1.00
16384;DHT22;8301;51.440;6.610;2024-03-02T10:44:41;12.40;1.00
16384;DHT22;8301;51.440;6.610;2024-03-02T10:47:09;12.30;1.00
16384;DHT22;8301;51.440;6.610;2024-03-02T10:49:38;12.30;1.00
16384;DHT22;8301;51.440;6.610;2024-03-02T10:52:07;12.40;1.00
16384;DHT22;8301;51.440;6.610;2024-03-02T10:54:35;12.20;1.00
16384;DHT22;8301;51.440;6.610;2024-03-02T10:57:05;12.40;1.00
16384;DHT22;8301;51.440;6.610;2024-03-02T10:59:56;12.50;1.00
16384;DHT22;8301;51.440;6.610;2024-03-02T11:02:21;12.40;1.00
16384;DHT22;8301;51.440;6.610;2024-03-02T11:04:51;12.60;1.00
16384;DHT22;8301;51.440;6.610;2024-03-02T11:07:21;12.80;1.00
16384;DHT22;8301;51.440;6.610;2024-03-02T11:09:54;12.90;1.00
16384;DHT22;8301;51.440;6.610;2024-03-02T11:12:31;13.20;1.00
16384;DHT22;8301;51.440;6.610;2024-03-02T11:14:59;13.20;1.00
16384;DHT22;8301;51.440;6.610;2024-03-02T11:17:28;13.30;1.00
16384;DHT22;8301;51.440;6.610;2024-03-02T11:19:57;13.30;1.00
16384;DHT22;8301;51.440;6.610;2024-03-02T11:22:25;13.40;1.00
16384;DHT22;8301;51.440;6.610;2024-03-02T11:24:53;13.30;1.00
16384;DHT22;8301;51.440;6.610;2024-03-02T11:30:55;13.00;1.00
16384;DHT22;8301;51.440;6.610;2024-03-02T11:32:53;13.20;1.00
16384;DHT22;8301;51.440;6.610;2024-03-02T11:35:15;13.20;1.00
16384;DHT22;8301;51.440;6.610;2024-03-02T11:37:42;13.60;1.00
16384;DHT22;8301;51.440;6.610;2024-03-02T11:40:10;13.70;1.00
16384;DHT22;8301;51.440;6.610;2024-03-02T11:42:38;13.60;1.00
16384;DHT22;8301;51.440;6.610;2024-03-02T11:45:08;13.70;1.00
16384;DHT22;8301;51.440;6.610;2024-03-02T11:47:36;13.50;1.00
16384;DHT22;8301;51.440;6.610;2024-03-02T11:50:04;13.70;1.00
16384;DHT22;8301;51.440;6.610;2024-03-02T11:52:34;13.80;1.00
16384;DHT22;8301;51.440;6.610;2024-03-02T11:55:02;13.80;1.00
16384;DHT22;8301;51.440;6.610;2024-03-02T11:57:30;13.60;1.00
16384;DHT22;8301;51.440;6.610;2024-03-02T11:59:58;13.60;1.00
16384;DHT22;8301;51.440;6.610;2024-03-02T12:02:27;13.60;1.00
16384;DHT22;8301;51.440;6.610;2024-03-02T12:04:56;13.90;1.00
16384;DHT22;8301;51.440;6.610;2024-03-02T12:07:24;13.90;1.00
16384;DHT22;8301;51.440;6.610;2024-03-02T12:10:01;14.10;1.00
16384;DHT22;8301;51.440;6.610;2024-03-02T12:12:29;14.10;1.00
16384;DHT22;8301;51.440;6.610;2024-03-02T12:14:57;14.00;1.00
16384;DHT22;8301;51.440;6.610;2024-03-02T12:17:26;13.70;1.00
16384;DHT22;8301;51.440;6.610;2024-03-02T12:19:54;13.50;1.00
16384;DHT22;8301;51.440;6.610;2024-03-02T12:22:23;13.40;1.00
16384;DHT22;8301;51.440;6.610;2024-03-02T12:24:50;13.40;1.00
16384;DHT22;8301;51.440;6.610;2024-03-02T12:27:18;13.40;1.00
16384;DHT22;8301;51.440;6.610;2024-03-02T12:29:48;13.60;1.00
16384;DHT22;8301;51.440;6.610;2024-03-02T12:32:16;13.60;1.00
16384;DHT22;8301;51.440;6.610;2024-03-02T12:34:46;13.30;1.00
16384;DHT22;8301;51.440;6.610;2024-03-02T12:37:15;13.20;1.00
16384;DHT22;8301;51.440;6.610;2024-03-02T12:42:12;13.00;1.00
16384;DHT22;8301;51.440;6.610;2024-03-02T12:44:40;13.10;1.00
16384;DHT22;8301;51.440;6.610;2024-03-02T12:47:08;13.20;1.00
16384;DHT22;8301;51.440;6.610;2024-03-02T12:49:35;13.10;1.00
16384;DHT22;8301;51.440;6.610;2024-03-02T12:52:03;13.10;1.00
16384;DHT22;8301;51.440;6.610;2024-03-02T12:54:31;13.20;1.00
16384;DHT22;8301;51.440;6.610;2024-03-02T12:56:59;13.30;1.00
16384;DHT22;8301;51.440;6.610;2024-03-02T12:59:29;13.40;1.00
16384;DHT22;8301;51.440;6.610;2024-03-02T13:01:57;13.50;1.00
16384;DHT22;8301;51.440;6.610;2024-03-02T13:04:26;13.70;1.00
16384;DHT22;8301;51.440;6.610;2024-03-02T13:06:55;13.80;1.00
16384;DHT22;8301;51.440;6.610;2024-03-02T13:09:24;13.80;1.00
16384;DHT22;8301;51.440;6.610;2024-03-02T13:11:52;13.80;1.00
16384;DHT22;8301;51.440;6.610;2024-03-02T13:14:24;14.00;1.00
16384;DHT22;8301;51.440;6.610;2024-03-02T13:16:52;14.00;1.00
16384;DHT22;8301;51.440;6.610;2024-03-02T13:19:23;13.80;1.00
16384;DHT22;8301;51.440;6.610;2024-03-02T13:21:51;13.70;1.00
16384;DHT22;8301;51.440;6.610;2024-03-02T13:24:19;13.90;1.00
16384;DHT22;8301;51.440;6.610;2024-03-02T13:26:46;13.90;1.00
16384;DHT22;8301;51.440;6.610;2024-03-02T13:29:14;13.70;1.00
16384;DHT22;8301;51.440;6.610;2024-03-02T13:31:41;13.60;1.00
16384;DHT22;8301;51.440;6.610;2024-03-02T13:34:09;13.70;1.00
16384;DHT22;8301;51.440;6.610;2024-03-02T13:36:36;13.90;1.00
16384;DHT22;8301;51.440;6.610;2024-03-02T13:39:05;13.80;1.00
16384;DHT22;8301;51.440;6.610;2024-03-02T13:41:34;13.90;1.00
16384;DHT22;8301;51.440;6.610;2024-03-02T13:44:01;14.00;1.00
16384;DHT22;8301;51.440;6.610;2024-03-02T13:46:29;14.00;1.00
16384;DHT22;8301;51.440;6.610;2024-03-02T13:48:57;14.00;1.00
16384;DHT22;8301;51.440;6.610;2024-03-02T13:51:25;13.80;1.00
16384;DHT22;8301;51.440;6.610;2024-03-02T14:11:05;13.70;1.00
16384;DHT22;8301;51.440;6.610;2024-03-02T14:18:27;13.60;1.00
16384;DHT22;8301;51.440;6.610;2024-03-02T14:20:54;13.60;1.00
